This is the latest recevied weather packets stored in our database for station/object F8BJE-13. If no packets are shown the sender has not sent any weather packets the latest 10 day(s).
| Time | Temp. | Humidity | Pressure | Rain* | Wind** | Luminosity | Snow |
|---|---|---|---|---|---|---|---|
| 1787472003 | 22.22° C | 42% | 1023.6 hPa | 0 mm | - | - | - |
| 1787470203 | 21.11° C | 43% | 1023.7 hPa | 0 mm | - | - | - |
| 1787468403 | 19.44° C | 46% | 1023.9 hPa | 0 mm | - | - | - |
| 1787466603 | 17.22° C | 54% | 1024 hPa | 0 mm | - | - | - |
| 1787464803 | 13.33° C | 70% | 1023.8 hPa | 0 mm | - | - | - |
| 1787463003 | 11.11° C | 71% | 1023.7 hPa | 0 mm | - | - | - |
| 1787461203 | 10.56° C | 71% | 1023.7 hPa | 0 mm | - | - | - |
| 1787459403 | 11.11° C | 70% | 1023.4 hPa | 0 mm | - | - | - |
| 1787457603 | 11.11° C | 70% | 1023.2 hPa | 0 mm | - | - | - |
| 1787455803 | 11.11° C | 70% | 1023.1 hPa | 0 mm | - | - | - |
| 1787454003 | 11.11° C | 70% | 1023.2 hPa | 0 mm | - | - | - |
| 1787452203 | 11.11° C | 70% | 1023 hPa | 0 mm | - | - | - |
| 1787450403 | 11.67° C | 69% | 1022.9 hPa | 0 mm | - | - | - |
| 1787448603 | 11.67° C | 68% | 1023 hPa | 0 mm | - | - | - |
| 1787446803 | 12.22° C | 67% | 1023.1 hPa | 0 mm | - | - | - |
| 1787445003 | 12.22° C | 68% | 1023.2 hPa | 0 mm | - | - | - |
| 1787443203 | 12.78° C | 70% | 1023.2 hPa | 0 mm | - | - | - |
| 1787441403 | 12.78° C | 70% | 1023.4 hPa | 0 mm | - | - | - |
| 1787439603 | 12.78° C | 70% | 1023.4 hPa | 0 mm | - | - | - |
| 1787437803 | 13.33° C | 69% | 1023.3 hPa | 0 mm | - | - | - |
| 1787436003 | 13.89° C | 67% | 1023.4 hPa | 0 mm | - | - | - |
| 1787434203 | 13.89° C | 65% | 1023.2 hPa | 0 mm | - | - | - |
| 1787432403 | 14.44° C | 62% | 1023.3 hPa | 0 mm | - | - | - |
| 1787430603 | 15.56° C | 56% | 1023.2 hPa | 0 mm | - | - | - |
| 1787428803 | 16.11° C | 53% | 1023.2 hPa | 0 mm | - | - | - |
* Rain latest hour (hover to see other rain measurements)
** Current wind speed in m/s (hover to see current wind gust speed)